sensor_id;sensor_type;location;lat;lon;timestamp;temperature;humidity
6930;DHT22;3504;52.616;13.238;2024-03-02T00:01:11;6.75;82.55
6930;DHT22;3504;52.616;13.238;2024-03-02T00:06:11;6.81;82.72
6930;DHT22;3504;52.616;13.238;2024-03-02T00:11:12;6.81;82.83
6930;DHT22;3504;52.616;13.238;2024-03-02T00:16:14;6.81;83.01
6930;DHT22;3504;52.616;13.238;2024-03-02T00:21:16;6.88;83.02
6930;DHT22;3504;52.616;13.238;2024-03-02T00:26:20;6.91;83.05
6930;DHT22;3504;52.616;13.238;2024-03-02T00:31:21;6.89;83.14
6930;DHT22;3504;52.616;13.238;2024-03-02T00:36:25;6.92;83.35
6930;DHT22;3504;52.616;13.238;2024-03-02T00:41:32;6.96;83.38
6930;DHT22;3504;52.616;13.238;2024-03-02T00:46:37;6.98;83.26
6930;DHT22;3504;52.616;13.238;2024-03-02T00:51:38;7.01;83.45
6930;DHT22;3504;52.616;13.238;2024-03-02T00:56:41;7.03;83.81
6930;DHT22;3504;52.616;13.238;2024-03-02T01:01:42;7.06;83.75
6930;DHT22;3504;52.616;13.238;2024-03-02T01:06:43;7.06;84.08
6930;DHT22;3504;52.616;13.238;2024-03-02T01:11:44;7.09;84.04
6930;DHT22;3504;52.616;13.238;2024-03-02T01:16:44;7.12;84.22
6930;DHT22;3504;52.616;13.238;2024-03-02T01:21:45;7.19;84.22
6930;DHT22;3504;52.616;13.238;2024-03-02T01:26:46;7.22;84.08
6930;DHT22;3504;52.616;13.238;2024-03-02T01:31:46;7.18;84.73
6930;DHT22;3504;52.616;13.238;2024-03-02T01:36:47;7.16;85.11
6930;DHT22;3504;52.616;13.238;2024-03-02T01:41:47;7.20;85.11
6930;DHT22;3504;52.616;13.238;2024-03-02T01:46:48;7.18;85.12
6930;DHT22;3504;52.616;13.238;2024-03-02T01:51:48;7.18;85.58
6930;DHT22;3504;52.616;13.238;2024-03-02T01:56:49;7.18;85.56
6930;DHT22;3504;52.616;13.238;2024-03-02T02:01:49;7.20;85.76
6930;DHT22;3504;52.616;13.238;2024-03-02T02:06:50;7.20;85.60
6930;DHT22;3504;52.616;13.238;2024-03-02T02:11:51;7.24;85.39
6930;DHT22;3504;52.616;13.238;2024-03-02T02:16:51;7.24;85.44
6930;DHT22;3504;52.616;13.238;2024-03-02T02:21:52;7.27;85.54
6930;DHT22;3504;52.616;13.238;2024-03-02T02:26:53;7.29;85.38
6930;DHT22;3504;52.616;13.238;2024-03-02T02:31:53;7.30;85.51
6930;DHT22;3504;52.616;13.238;2024-03-02T02:36:54;7.30;85.45
6930;DHT22;3504;52.616;13.238;2024-03-02T02:41:55;7.30;85.72
6930;DHT22;3504;52.616;13.238;2024-03-02T02:46:55;7.30;85.76
6930;DHT22;3504;52.616;13.238;2024-03-02T02:51:56;7.32;85.55
6930;DHT22;3504;52.616;13.238;2024-03-02T02:56:56;7.37;85.51
6930;DHT22;3504;52.616;13.238;2024-03-02T03:01:57;7.43;85.38
6930;DHT22;3504;52.616;13.238;2024-03-02T03:06:57;7.43;85.39
6930;DHT22;3504;52.616;13.238;2024-03-02T03:12:00;7.44;85.44
6930;DHT22;3504;52.616;13.238;2024-03-02T03:17:01;7.51;85.79
6930;DHT22;3504;52.616;13.238;2024-03-02T03:22:02;7.53;85.91
6930;DHT22;3504;52.616;13.238;2024-03-02T03:27:03;7.61;86.35
6930;DHT22;3504;52.616;13.238;2024-03-02T03:32:04;7.71;86.84
6930;DHT22;3504;52.616;13.238;2024-03-02T03:37:07;7.75;87.13
6930;DHT22;3504;52.616;13.238;2024-03-02T03:42:07;7.83;87.20
6930;DHT22;3504;52.616;13.238;2024-03-02T03:47:08;7.91;87.55
6930;DHT22;3504;52.616;13.238;2024-03-02T03:52:08;7.95;87.35
6930;DHT22;3504;52.616;13.238;2024-03-02T03:57:09;7.99;87.36
6930;DHT22;3504;52.616;13.238;2024-03-02T04:02:10;8.05;87.15
6930;DHT22;3504;52.616;13.238;2024-03-02T04:07:12;8.07;87.24
6930;DHT22;3504;52.616;13.238;2024-03-02T04:12:12;8.11;87.06
6930;DHT22;3504;52.616;13.238;2024-03-02T04:17:13;8.11;87.04
6930;DHT22;3504;52.616;13.238;2024-03-02T04:22:14;8.12;86.84
6930;DHT22;3504;52.616;13.238;2024-03-02T04:27:17;8.15;86.93
6930;DHT22;3504;52.616;13.238;2024-03-02T04:32:17;8.19;86.95
6930;DHT22;3504;52.616;13.238;2024-03-02T04:37:20;8.22;86.95
6930;DHT22;3504;52.616;13.238;2024-03-02T04:42:20;8.24;86.98
6930;DHT22;3504;52.616;13.238;2024-03-02T04:47:21;8.26;86.70
6930;DHT22;3504;52.616;13.238;2024-03-02T04:52:22;8.32;86.51
6930;DHT22;3504;52.616;13.238;2024-03-02T04:57:23;8.33;86.54
6930;DHT22;3504;52.616;13.238;2024-03-02T05:02:24;8.30;86.42
6930;DHT22;3504;52.616;13.238;2024-03-02T05:07:24;8.33;86.37
6930;DHT22;3504;52.616;13.238;2024-03-02T05:12:25;8.32;86.46
6930;DHT22;3504;52.616;13.238;2024-03-02T05:17:43;8.33;86.57
6930;DHT22;3504;52.616;13.238;2024-03-02T05:22:44;8.35;86.49
6930;DHT22;3504;52.616;13.238;2024-03-02T05:27:44;8.32;86.61
6930;DHT22;3504;52.616;13.238;2024-03-02T05:32:45;8.35;86.65
6930;DHT22;3504;52.616;13.238;2024-03-02T05:37:45;8.36;86.93
6930;DHT22;3504;52.616;13.238;2024-03-02T05:42:46;8.42;87.69
6930;DHT22;3504;52.616;13.238;2024-03-02T05:47:47;8.45;88.28
6930;DHT22;3504;52.616;13.238;2024-03-02T05:52:48;8.50;88.45
6930;DHT22;3504;52.616;13.238;2024-03-02T05:57:48;8.53;88.61
6930;DHT22;3504;52.616;13.238;2024-03-02T06:03:07;8.59;88.64
6930;DHT22;3504;52.616;13.238;2024-03-02T06:08:09;8.57;88.63
6930;DHT22;3504;52.616;13.238;2024-03-02T06:13:10;8.63;88.53
6930;DHT22;3504;52.616;13.238;2024-03-02T06:18:10;8.66;88.25
6930;DHT22;3504;52.616;13.238;2024-03-02T06:23:11;8.69;88.27
6930;DHT22;3504;52.616;13.238;2024-03-02T06:28:11;8.69;88.32
6930;DHT22;3504;52.616;13.238;2024-03-02T06:33:12;8.69;88.05
6930;DHT22;3504;52.616;13.238;2024-03-02T06:38:12;8.71;88.15
6930;DHT22;3504;52.616;13.238;2024-03-02T06:43:13;8.74;87.85
6930;DHT22;3504;52.616;13.238;2024-03-02T06:48:14;8.80;87.88
6930;DHT22;3504;52.616;13.238;2024-03-02T06:53:18;8.86;87.85
6930;DHT22;3504;52.616;13.238;2024-03-02T06:58:19;8.97;87.71
6930;DHT22;3504;52.616;13.238;2024-03-02T07:03:20;9.01;87.60
6930;DHT22;3504;52.616;13.238;2024-03-02T07:08:20;9.03;87.25
6930;DHT22;3504;52.616;13.238;2024-03-02T07:13:21;9.04;87.18
6930;DHT22;3504;52.616;13.238;2024-03-02T07:18:21;9.00;86.92
6930;DHT22;3504;52.616;13.238;2024-03-02T07:23:22;9.04;87.35
6930;DHT22;3504;52.616;13.238;2024-03-02T07:28:27;9.10;87.46
6930;DHT22;3504;52.616;13.238;2024-03-02T07:33:28;9.17;87.44
6930;DHT22;3504;52.616;13.238;2024-03-02T07:38:28;9.22;87.40
6930;DHT22;3504;52.616;13.238;2024-03-02T07:43:32;9.25;87.25
6930;DHT22;3504;52.616;13.238;2024-03-02T07:48:33;9.22;87.21
6930;DHT22;3504;52.616;13.238;2024-03-02T07:53:34;9.27;87.25
6930;DHT22;3504;52.616;13.238;2024-03-02T07:58:35;9.25;87.17
6930;DHT22;3504;52.616;13.238;2024-03-02T08:03:35;9.25;87.26
6930;DHT22;3504;52.616;13.238;2024-03-02T08:08:40;9.25;86.86
6930;DHT22;3504;52.616;13.238;2024-03-02T08:13:41;9.25;87.18
6930;DHT22;3504;52.616;13.238;2024-03-02T08:18:42;9.28;87.09
6930;DHT22;3504;52.616;13.238;2024-03-02T08:23:43;9.35;86.78
6930;DHT22;3504;52.616;13.238;2024-03-02T08:28:43;9.42;86.64
6930;DHT22;3504;52.616;13.238;2024-03-02T08:33:44;9.48;86.58
6930;DHT22;3504;52.616;13.238;2024-03-02T08:38:45;9.53;86.37
6930;DHT22;3504;52.616;13.238;2024-03-02T08:43:45;9.55;86.47
6930;DHT22;3504;52.616;13.238;2024-03-02T08:48:46;9.61;86.61
6930;DHT22;3504;52.616;13.238;2024-03-02T08:53:48;9.56;86.10
6930;DHT22;3504;52.616;13.238;2024-03-02T08:58:52;9.63;86.07
6930;DHT22;3504;52.616;13.238;2024-03-02T09:03:52;9.66;85.95
6930;DHT22;3504;52.616;13.238;2024-03-02T09:08:53;9.62;85.40
6930;DHT22;3504;52.616;13.238;2024-03-02T09:13:53;9.69;85.57
6930;DHT22;3504;52.616;13.238;2024-03-02T09:18:56;9.73;85.35
6930;DHT22;3504;52.616;13.238;2024-03-02T09:23:57;9.81;85.36
6930;DHT22;3504;52.616;13.238;2024-03-02T09:28:58;9.85;85.21
6930;DHT22;3504;52.616;13.238;2024-03-02T09:33:58;9.87;84.99
6930;DHT22;3504;52.616;13.238;2024-03-02T09:38:59;9.92;84.86
6930;DHT22;3504;52.616;13.238;2024-03-02T09:43:59;9.93;84.58
6930;DHT22;3504;52.616;13.238;2024-03-02T09:49:00;10.00;84.48
6930;DHT22;3504;52.616;13.238;2024-03-02T09:54:01;10.07;84.46
6930;DHT22;3504;52.616;13.238;2024-03-02T09:59:01;10.17;84.25
6930;DHT22;3504;52.616;13.238;2024-03-02T10:04:02;10.31;84.01
6930;DHT22;3504;52.616;13.238;2024-03-02T10:09:03;10.45;83.44
6930;DHT22;3504;52.616;13.238;2024-03-02T10:14:12;10.63;83.05
6930;DHT22;3504;52.616;13.238;2024-03-02T10:19:21;10.71;82.93
6930;DHT22;3504;52.616;13.238;2024-03-02T10:24:22;10.85;82.42
6930;DHT22;3504;52.616;13.238;2024-03-02T10:29:23;10.93;81.38
6930;DHT22;3504;52.616;13.238;2024-03-02T10:34:23;11.06;81.32
6930;DHT22;3504;52.616;13.238;2024-03-02T10:39:24;11.17;80.47
6930;DHT22;3504;52.616;13.238;2024-03-02T10:44:25;11.36;80.33
6930;DHT22;3504;52.616;13.238;2024-03-02T10:49:27;11.60;78.80
6930;DHT22;3504;52.616;13.238;2024-03-02T10:54:29;11.68;77.35
6930;DHT22;3504;52.616;13.238;2024-03-02T10:59:37;11.78;77.52
6930;DHT22;3504;52.616;13.238;2024-03-02T11:04:40;12.21;76.90
6930;DHT22;3504;52.616;13.238;2024-03-02T11:09:49;12.22;75.73
6930;DHT22;3504;52.616;13.238;2024-03-02T11:14:53;12.28;75.60
6930;DHT22;3504;52.616;13.238;2024-03-02T11:19:55;12.24;75.11
6930;DHT22;3504;52.616;13.238;2024-03-02T11:24:57;12.24;74.85
6930;DHT22;3504;52.616;13.238;2024-03-02T11:29:57;12.24;75.00
6930;DHT22;3504;52.616;13.238;2024-03-02T11:34:58;12.38;75.60
6930;DHT22;3504;52.616;13.238;2024-03-02T11:39:58;12.46;74.62
6930;DHT22;3504;52.616;13.238;2024-03-02T11:44:59;12.40;73.43
6930;DHT22;3504;52.616;13.238;2024-03-02T11:49:59;12.38;72.45
6930;DHT22;3504;52.616;13.238;2024-03-02T11:55:02;12.45;73.28
6930;DHT22;3504;52.616;13.238;2024-03-02T12:00:04;12.52;72.87
6930;DHT22;3504;52.616;13.238;2024-03-02T12:05:07;12.52;72.62
6930;DHT22;3504;52.616;13.238;2024-03-02T12:10:09;12.62;73.01
6930;DHT22;3504;52.616;13.238;2024-03-02T12:15:10;12.66;72.21
6930;DHT22;3504;52.616;13.238;2024-03-02T12:20:12;12.70;70.84
6930;DHT22;3504;52.616;13.238;2024-03-02T12:25:12;12.76;70.93
6930;DHT22;3504;52.616;13.238;2024-03-02T12:30:13;12.79;70.32
6930;DHT22;3504;52.616;13.238;2024-03-02T12:35:18;12.91;71.12
6930;DHT22;3504;52.616;13.238;2024-03-02T12:40:20;13.14;69.59
6930;DHT22;3504;52.616;13.238;2024-03-02T12:45:22;13.31;69.19
6930;DHT22;3504;52.616;13.238;2024-03-02T12:50:25;13.41;68.85
6930;DHT22;3504;52.616;13.238;2024-03-02T12:55:26;13.52;68.63
6930;DHT22;3504;52.616;13.238;2024-03-02T13:00:26;13.53;68.14
6930;DHT22;3504;52.616;13.238;2024-03-02T13:05:30;13.66;68.06
6930;DHT22;3504;52.616;13.238;2024-03-02T13:10:32;13.65;67.71
6930;DHT22;3504;52.616;13.238;2024-03-02T13:15:35;13.41;67.65
6930;DHT22;3504;52.616;13.238;2024-03-02T13:20:36;13.24;68.31
6930;DHT22;3504;52.616;13.238;2024-03-02T13:25:37;13.18;68.82
6930;DHT22;3504;52.616;13.238;2024-03-02T13:30:38;13.12;69.06
6930;DHT22;3504;52.616;13.238;2024-03-02T13:35:38;13.21;69.48
6930;DHT22;3504;52.616;13.238;2024-03-02T13:40:39;13.20;69.37
6930;DHT22;3504;52.616;13.238;2024-03-02T13:45:40;13.30;69.26
6930;DHT22;3504;52.616;13.238;2024-03-02T13:50:41;13.41;69.51
6930;DHT22;3504;52.616;13.238;2024-03-02T13:55:42;13.58;68.75
6930;DHT22;3504;52.616;13.238;2024-03-02T14:00:44;13.69;67.17
6930;DHT22;3504;52.616;13.238;2024-03-02T14:05:45;13.71;67.16
6930;DHT22;3504;52.616;13.238;2024-03-02T14:10:49;13.83;66.49
6930;DHT22;3504;52.616;13.238;2024-03-02T14:15:50;13.96;66.02
6930;DHT22;3504;52.616;13.238;2024-03-02T14:20:50;13.95;65.14
6930;DHT22;3504;52.616;13.238;2024-03-02T14:25:52;14.02;65.33
6930;DHT22;3504;52.616;13.238;2024-03-02T14:30:53;14.00;64.41
6930;DHT22;3504;52.616;13.238;2024-03-02T14:35:55;13.97;64.13
6930;DHT22;3504;52.616;13.238;2024-03-02T14:40:55;13.83;64.39
6930;DHT22;3504;52.616;13.238;2024-03-02T14:45:56;13.67;64.45
6930;DHT22;3504;52.616;13.238;2024-03-02T14:50:57;13.62;65.07
6930;DHT22;3504;52.616;13.238;2024-03-02T14:55:57;13.59;64.58
6930;DHT22;3504;52.616;13.238;2024-03-02T15:00:58;13.53;64.87
6930;DHT22;3504;52.616;13.238;2024-03-02T15:05:59;13.49;64.94
6930;DHT22;3504;52.616;13.238;2024-03-02T15:10:59;13.45;64.78
6930;DHT22;3504;52.616;13.238;2024-03-02T15:16:01;13.48;65.47
6930;DHT22;3504;52.616;13.238;2024-03-02T15:21:02;13.51;64.85
6930;DHT22;3504;52.616;13.238;2024-03-02T15:26:02;13.41;64.39
6930;DHT22;3504;52.616;13.238;2024-03-02T15:31:03;13.36;64.39
6930;DHT22;3504;52.616;13.238;2024-03-02T15:36:05;13.35;64.86
6930;DHT22;3504;52.616;13.238;2024-03-02T15:41:05;13.34;64.21
6930;DHT22;3504;52.616;13.238;2024-03-02T15:46:06;13.36;65.03
6930;DHT22;3504;52.616;13.238;2024-03-02T15:51:06;13.32;64.66
6930;DHT22;3504;52.616;13.238;2024-03-02T15:56:07;13.30;64.88
6930;DHT22;3504;52.616;13.238;2024-03-02T16:01:07;13.14;64.65
6930;DHT22;3504;52.616;13.238;2024-03-02T16:06:08;13.10;65.66
6930;DHT22;3504;52.616;13.238;2024-03-02T16:11:08;13.03;65.75
6930;DHT22;3504;52.616;13.238;2024-03-02T16:16:11;12.97;66.02
6930;DHT22;3504;52.616;13.238;2024-03-02T16:21:11;12.90;66.49
6930;DHT22;3504;52.616;13.238;2024-03-02T16:26:13;12.80;67.01
6930;DHT22;3504;52.616;13.238;2024-03-02T16:31:13;12.73;67.59
6930;DHT22;3504;52.616;13.238;2024-03-02T16:36:15;12.63;67.83
6930;DHT22;3504;52.616;13.238;2024-03-02T16:41:16;12.55;67.71
6930;DHT22;3504;52.616;13.238;2024-03-02T16:46:18;12.43;67.83
6930;DHT22;3504;52.616;13.238;2024-03-02T16:51:18;12.32;68.53
6930;DHT22;3504;52.616;13.238;2024-03-02T16:56:19;12.19;68.98
6930;DHT22;3504;52.616;13.238;2024-03-02T17:01:19;12.12;69.36
6930;DHT22;3504;52.616;13.238;2024-03-02T17:06:20;12.05;69.69
6930;DHT22;3504;52.616;13.238;2024-03-02T17:11:20;11.97;69.99
6930;DHT22;3504;52.616;13.238;2024-03-02T17:16:21;11.94;70.21
6930;DHT22;3504;52.616;13.238;2024-03-02T17:21:21;11.87;70.38
6930;DHT22;3504;52.616;13.238;2024-03-02T17:26:23;11.78;70.54
6930;DHT22;3504;52.616;13.238;2024-03-02T17:31:23;11.71;70.81
6930;DHT22;3504;52.616;13.238;2024-03-02T17:36:24;11.63;71.10
6930;DHT22;3504;52.616;13.238;2024-03-02T17:41:24;11.56;71.39
6930;DHT22;3504;52.616;13.238;2024-03-02T17:46:25;11.46;71.56
6930;DHT22;3504;52.616;13.238;2024-03-02T17:51:26;11.37;71.87
6930;DHT22;3504;52.616;13.238;2024-03-02T17:56:26;11.30;72.09
6930;DHT22;3504;52.616;13.238;2024-03-02T18:01:27;11.26;72.23
6930;DHT22;3504;52.616;13.238;2024-03-02T18:06:27;11.19;72.38
6930;DHT22;3504;52.616;13.238;2024-03-02T18:11:28;11.12;72.47
6930;DHT22;3504;52.616;13.238;2024-03-02T18:16:28;11.03;72.67
6930;DHT22;3504;52.616;13.238;2024-03-02T18:21:29;10.91;73.07
6930;DHT22;3504;52.616;13.238;2024-03-02T18:26:29;10.76;73.70
6930;DHT22;3504;52.616;13.238;2024-03-02T18:31:36;10.69;73.90
6930;DHT22;3504;52.616;13.238;2024-03-02T18:36:37;10.55;74.44
6930;DHT22;3504;52.616;13.238;2024-03-02T18:41:37;10.52;74.37
6930;DHT22;3504;52.616;13.238;2024-03-02T18:46:38;10.41;74.79
6930;DHT22;3504;52.616;13.238;2024-03-02T18:51:38;10.31;75.24
6930;DHT22;3504;52.616;13.238;2024-03-02T18:56:42;10.18;75.54
6930;DHT22;3504;52.616;13.238;2024-03-02T19:01:42;10.14;75.37
6930;DHT22;3504;52.616;13.238;2024-03-02T19:06:43;10.06;75.59
6930;DHT22;3504;52.616;13.238;2024-03-02T19:11:44;9.96;76.23
6930;DHT22;3504;52.616;13.238;2024-03-02T19:16:45;9.87;76.64
6930;DHT22;3504;52.616;13.238;2024-03-02T19:21:45;9.79;76.66
6930;DHT22;3504;52.616;13.238;2024-03-02T19:26:46;9.73;77.20
6930;DHT22;3504;52.616;13.238;2024-03-02T19:31:47;9.69;77.21
6930;DHT22;3504;52.616;13.238;2024-03-02T19:36:47;9.69;77.06
6930;DHT22;3504;52.616;13.238;2024-03-02T19:41:48;9.61;77.14
6930;DHT22;3504;52.616;13.238;2024-03-02T19:46:48;9.56;77.39
6930;DHT22;3504;52.616;13.238;2024-03-02T19:51:49;9.48;77.54
6930;DHT22;3504;52.616;13.238;2024-03-02T19:56:50;9.43;77.33
6930;DHT22;3504;52.616;13.238;2024-03-02T20:01:54;9.41;77.65
6930;DHT22;3504;52.616;13.238;2024-03-02T20:06:55;9.27;78.12
6930;DHT22;3504;52.616;13.238;2024-03-02T20:11:55;9.14;78.92
6930;DHT22;3504;52.616;13.238;2024-03-02T20:16:57;9.03;79.39
6930;DHT22;3504;52.616;13.238;2024-03-02T20:22:00;9.04;79.38
6930;DHT22;3504;52.616;13.238;2024-03-02T20:27:01;9.04;79.07
6930;DHT22;3504;52.616;13.238;2024-03-02T20:32:05;8.98;79.00
6930;DHT22;3504;52.616;13.238;2024-03-02T20:37:07;8.96;79.13
6930;DHT22;3504;52.616;13.238;2024-03-02T20:42:07;8.91;79.53
6930;DHT22;3504;52.616;13.238;2024-03-02T20:47:08;8.86;79.72
6930;DHT22;3504;52.616;13.238;2024-03-02T20:52:09;8.77;79.47
6930;DHT22;3504;52.616;13.238;2024-03-02T20:57:09;8.76;79.55
6930;DHT22;3504;52.616;13.238;2024-03-02T21:02:10;8.73;79.47
6930;DHT22;3504;52.616;13.238;2024-03-02T21:07:10;8.66;79.27
6930;DHT22;3504;52.616;13.238;2024-03-02T21:12:11;8.61;79.58
6930;DHT22;3504;52.616;13.238;2024-03-02T21:17:12;8.57;79.65
6930;DHT22;3504;52.616;13.238;2024-03-02T21:22:12;8.52;79.57
6930;DHT22;3504;52.616;13.238;2024-03-02T21:27:13;8.43;79.53
6930;DHT22;3504;52.616;13.238;2024-03-02T21:32:14;8.39;79.55
6930;DHT22;3504;52.616;13.238;2024-03-02T21:37:14;8.36;79.72
6930;DHT22;3504;52.616;13.238;2024-03-02T21:42:15;8.32;80.27
6930;DHT22;3504;52.616;13.238;2024-03-02T21:47:15;8.36;80.54
6930;DHT22;3504;52.616;13.238;2024-03-02T21:52:19;8.35;81.10
6930;DHT22;3504;52.616;13.238;2024-03-02T21:57:20;8.36;81.81
6930;DHT22;3504;52.616;13.238;2024-03-02T22:02:20;8.39;82.13
6930;DHT22;3504;52.616;13.238;2024-03-02T22:07:21;8.46;82.85
6930;DHT22;3504;52.616;13.238;2024-03-02T22:12:21;8.53;82.91
6930;DHT22;3504;52.616;13.238;2024-03-02T22:17:22;8.53;82.88
6930;DHT22;3504;52.616;13.238;2024-03-02T22:22:22;8.57;82.74
6930;DHT22;3504;52.616;13.238;2024-03-02T22:27:23;8.56;82.67
6930;DHT22;3504;52.616;13.238;2024-03-02T22:32:23;8.57;82.89
6930;DHT22;3504;52.616;13.238;2024-03-02T22:37:24;8.59;83.30
6930;DHT22;3504;52.616;13.238;2024-03-02T22:42:24;8.59;82.98
6930;DHT22;3504;52.616;13.238;2024-03-02T22:47:25;8.59;82.99
6930;DHT22;3504;52.616;13.238;2024-03-02T22:52:25;8.61;82.96
6930;DHT22;3504;52.616;13.238;2024-03-02T22:57:26;8.59;83.00
6930;DHT22;3504;52.616;13.238;2024-03-02T23:02:26;8.60;82.92
6930;DHT22;3504;52.616;13.238;2024-03-02T23:07:27;8.61;82.82
6930;DHT22;3504;52.616;13.238;2024-03-02T23:12:27;8.53;82.95
6930;DHT22;3504;52.616;13.238;2024-03-02T23:17:28;8.49;83.05
6930;DHT22;3504;52.616;13.238;2024-03-02T23:22:28;8.46;82.78
6930;DHT22;3504;52.616;13.238;2024-03-02T23:27:29;8.46;83.00
6930;DHT22;3504;52.616;13.238;2024-03-02T23:32:30;8.45;83.19
6930;DHT22;3504;52.616;13.238;2024-03-02T23:37:30;8.46;83.35
6930;DHT22;3504;52.616;13.238;2024-03-02T23:42:32;8.45;83.65
6930;DHT22;3504;52.616;13.238;2024-03-02T23:47:32;8.48;84.01
6930;DHT22;3504;52.616;13.238;2024-03-02T23:52:33;8.50;84.07
6930;DHT22;3504;52.616;13.238;2024-03-02T23:57:33;8.52;84.70
